createdAt,value
2023-03-06T00:03:02.000Z,2.07
2023-03-06T00:07:56.000Z,2.03
2023-03-06T00:12:50.000Z,2.04
2023-03-06T00:17:44.000Z,1.83
2023-03-06T00:22:37.000Z,1.73
2023-03-06T00:27:29.000Z,1.8
2023-03-06T00:32:23.000Z,1.86
2023-03-06T00:37:17.000Z,1.95
2023-03-06T00:42:11.000Z,1.89
2023-03-06T00:47:04.000Z,1.91
2023-03-06T00:51:58.000Z,1.89
2023-03-06T00:56:51.000Z,1.94
2023-03-06T01:01:45.000Z,1.83
2023-03-06T01:06:38.000Z,1.72
2023-03-06T01:11:32.000Z,1.71
2023-03-06T01:16:26.000Z,1.71
2023-03-06T01:21:20.000Z,1.71
2023-03-06T01:26:11.000Z,1.67
2023-03-06T01:31:05.000Z,1.71
2023-03-06T01:36:00.000Z,1.65
2023-03-06T01:40:53.000Z,1.66
2023-03-06T01:45:49.000Z,1.69
2023-03-06T01:50:39.000Z,1.74
2023-03-06T01:55:33.000Z,1.69
2023-03-06T02:00:27.000Z,1.54
2023-03-06T02:05:20.000Z,1.45
2023-03-06T02:10:13.000Z,1.46
2023-03-06T02:15:07.000Z,1.45
2023-03-06T02:20:01.000Z,1.28
2023-03-06T02:24:55.000Z,1.28
2023-03-06T02:29:48.000Z,1.27
2023-03-06T02:34:42.000Z,1.22
2023-03-06T02:39:36.000Z,1.24
2023-03-06T02:44:30.000Z,1.16
2023-03-06T02:49:26.000Z,1.16
2023-03-06T02:54:16.000Z,1.23
2023-03-06T02:59:08.000Z,1.12
2023-03-06T03:04:02.000Z,1.27
2023-03-06T03:08:51.000Z,1.12
2023-03-06T03:13:44.000Z,1.07
2023-03-06T03:18:38.000Z,0.98
2023-03-06T03:23:31.000Z,0.97
2023-03-06T03:28:25.000Z,0.97
2023-03-06T03:33:19.000Z,0.97
2023-03-06T03:38:13.000Z,0.98
2023-03-06T03:43:07.000Z,0.98
2023-03-06T03:48:00.000Z,0.95
2023-03-06T03:52:54.000Z,0.91
2023-03-06T03:57:48.000Z,0.97
2023-03-06T04:02:42.000Z,1.07
2023-03-06T04:07:37.000Z,1.05
2023-03-06T04:12:31.000Z,1.01
2023-03-06T04:17:25.000Z,0.98
2023-03-06T04:22:18.000Z,0.98
2023-03-06T04:27:12.000Z,0.98
2023-03-06T04:32:06.000Z,0.99
2023-03-06T04:37:00.000Z,0.92
2023-03-06T04:41:54.000Z,0.95
2023-03-06T04:46:48.000Z,0.92
2023-03-06T04:51:42.000Z,1
2023-03-06T04:56:36.000Z,0.99
2023-03-06T05:01:30.000Z,0.94
2023-03-06T05:06:23.000Z,0.95
2023-03-06T05:11:15.000Z,0.95
2023-03-06T05:16:09.000Z,0.93
2023-03-06T05:21:03.000Z,0.97
2023-03-06T05:25:57.000Z,0.94
2023-03-06T05:30:49.000Z,0.89
2023-03-06T05:35:42.000Z,0.78
2023-03-06T05:40:35.000Z,0.86
2023-03-06T05:45:29.000Z,0.7
2023-03-06T05:50:23.000Z,0.74
2023-03-06T05:55:17.000Z,0.76
2023-03-06T06:00:11.000Z,0.73
2023-03-06T06:05:04.000Z,0.68
2023-03-06T06:09:59.000Z,0.74
2023-03-06T06:14:52.000Z,0.76
2023-03-06T06:19:46.000Z,1.24
2023-03-06T06:24:40.000Z,0.92
2023-03-06T06:29:34.000Z,0.92
2023-03-06T06:34:28.000Z,0.96
2023-03-06T06:39:22.000Z,0.96
2023-03-06T06:44:16.000Z,1.24
2023-03-06T06:49:10.000Z,1.23
2023-03-06T06:54:03.000Z,1.12
2023-03-06T06:58:57.000Z,1.13
2023-03-06T07:03:51.000Z,1.24
2023-03-06T07:08:45.000Z,1.4
2023-03-06T07:13:39.000Z,1.62
2023-03-06T07:18:33.000Z,1.69
2023-03-06T07:23:26.000Z,1.58
2023-03-06T07:28:18.000Z,1.52
2023-03-06T07:33:12.000Z,1.52
2023-03-06T07:38:06.000Z,1.41
2023-03-06T07:43:00.000Z,1.33
2023-03-06T07:47:52.000Z,1.46
2023-03-06T07:52:47.000Z,1.49
2023-03-06T07:57:41.000Z,1.52
2023-03-06T08:02:35.000Z,1.51
2023-03-06T08:07:27.000Z,1.54
2023-03-06T08:12:21.000Z,1.56
2023-03-06T08:17:14.000Z,1.6
2023-03-06T08:22:07.000Z,1.73
2023-03-06T08:27:02.000Z,1.95
2023-03-06T08:31:59.000Z,2.18
2023-03-06T08:36:50.000Z,2.44
2023-03-06T08:41:44.000Z,2.45
2023-03-06T08:46:39.000Z,2.37
2023-03-06T08:51:33.000Z,3.13
2023-03-06T08:56:27.000Z,3.2
2023-03-06T09:01:20.000Z,2.94
2023-03-06T09:06:14.000Z,3.37
2023-03-06T09:11:08.000Z,3.11
2023-03-06T09:16:02.000Z,2.7
2023-03-06T09:20:56.000Z,2.5
2023-03-06T09:25:50.000Z,2.69
2023-03-06T09:30:44.000Z,3.07
2023-03-06T09:35:38.000Z,3.23
2023-03-06T09:40:33.000Z,3.11
2023-03-06T09:45:26.000Z,2.99
2023-03-06T09:50:20.000Z,3
2023-03-06T09:55:12.000Z,3
2023-03-06T10:00:06.000Z,2.67
2023-03-06T10:05:00.000Z,3
2023-03-06T10:09:54.000Z,3.49
2023-03-06T10:14:48.000Z,3.59
2023-03-06T10:19:42.000Z,3.71
2023-03-06T10:24:36.000Z,3.36
2023-03-06T10:29:31.000Z,3.53
2023-03-06T10:34:24.000Z,3.64
2023-03-06T10:39:18.000Z,3.4
2023-03-06T10:44:12.000Z,3.45
2023-03-06T10:49:05.000Z,3.84
2023-03-06T10:53:59.000Z,4.36
2023-03-06T10:58:54.000Z,4.71
2023-03-06T11:03:48.000Z,4.55
2023-03-06T11:08:42.000Z,4.52
2023-03-06T11:13:36.000Z,4.45
2023-03-06T11:18:30.000Z,4.86
2023-03-06T11:23:23.000Z,5.36
2023-03-06T11:28:17.000Z,5.21
2023-03-06T11:33:11.000Z,5.03
2023-03-06T11:38:05.000Z,4.69
2023-03-06T11:42:59.000Z,6.09
2023-03-06T11:47:53.000Z,7.89
2023-03-06T11:52:49.000Z,10.53
2023-03-06T11:57:45.000Z,11.97
2023-03-06T12:02:41.000Z,9.59
2023-03-06T12:07:36.000Z,9.78
2023-03-06T12:12:29.000Z,8.37
2023-03-06T12:17:23.000Z,8.96
2023-03-06T12:22:16.000Z,10.27
2023-03-06T12:27:10.000Z,12.3
2023-03-06T12:32:04.000Z,12.98
2023-03-06T12:36:59.000Z,11.37
2023-03-06T12:41:53.000Z,10.89
2023-03-06T12:46:47.000Z,11.27
2023-03-06T12:51:41.000Z,13.1
2023-03-06T12:56:36.000Z,13.13
2023-03-06T13:01:30.000Z,9.99
2023-03-06T13:06:22.000Z,8.02
2023-03-06T13:11:15.000Z,7.87
2023-03-06T13:16:06.000Z,7.7
2023-03-06T13:20:59.000Z,6.73
2023-03-06T13:25:53.000Z,5.82
2023-03-06T13:30:44.000Z,5.69
2023-03-06T13:35:36.000Z,5.7
2023-03-06T13:40:28.000Z,5.84
2023-03-06T13:45:22.000Z,5.48
2023-03-06T13:50:15.000Z,5.17
2023-03-06T13:55:09.000Z,5.11
2023-03-06T14:00:01.000Z,5.19
2023-03-06T14:04:54.000Z,4.86
2023-03-06T14:09:48.000Z,4.63
2023-03-06T14:14:41.000Z,4.59
2023-03-06T14:19:34.000Z,4.57
2023-03-06T14:24:28.000Z,4.64
2023-03-06T14:29:21.000Z,4.76
2023-03-06T14:34:13.000Z,4.52
2023-03-06T14:39:07.000Z,4.52
2023-03-06T14:44:01.000Z,4.7
2023-03-06T14:48:55.000Z,4.86
2023-03-06T14:53:49.000Z,5.27
2023-03-06T14:58:43.000Z,5.17
2023-03-06T15:03:36.000Z,5.26
2023-03-06T15:08:28.000Z,5.53
2023-03-06T15:13:21.000Z,5.49
2023-03-06T15:18:15.000Z,5.14
2023-03-06T15:23:09.000Z,5.1
2023-03-06T15:28:03.000Z,5.17
2023-03-06T15:32:56.000Z,5.02
2023-03-06T15:37:49.000Z,4.94
2023-03-06T15:42:43.000Z,4.83
2023-03-06T15:47:37.000Z,4.84
2023-03-06T15:52:31.000Z,4.72
2023-03-06T15:57:24.000Z,4.79
2023-03-06T16:02:18.000Z,4.71
2023-03-06T16:07:11.000Z,4.7
2023-03-06T16:12:05.000Z,4.53
2023-03-06T16:16:59.000Z,4.49
2023-03-06T16:21:52.000Z,4.29
2023-03-06T16:26:46.000Z,4.2
2023-03-06T16:31:39.000Z,4.14
2023-03-06T16:36:33.000Z,4.01
2023-03-06T16:41:27.000Z,3.83
2023-03-06T16:46:20.000Z,3.71
2023-03-06T16:51:14.000Z,3.48
2023-03-06T16:56:06.000Z,3.49
2023-03-06T17:01:00.000Z,3.38
2023-03-06T17:05:54.000Z,3.37
2023-03-06T17:10:48.000Z,3.25
2023-03-06T17:15:41.000Z,3.33
2023-03-06T17:20:35.000Z,3.33
2023-03-06T17:25:29.000Z,3.35
2023-03-06T17:30:26.000Z,3.32
2023-03-06T17:35:17.000Z,3.26
2023-03-06T17:40:10.000Z,3.13
2023-03-06T17:45:04.000Z,3.07
2023-03-06T17:49:57.000Z,3
2023-03-06T17:54:50.000Z,3.04
2023-03-06T17:59:44.000Z,3.02
2023-03-06T18:04:36.000Z,3.1
2023-03-06T18:09:30.000Z,3.1
2023-03-06T18:14:27.000Z,3.17
2023-03-06T18:19:17.000Z,3.24
2023-03-06T18:24:11.000Z,3.14
2023-03-06T18:29:05.000Z,3.03
2023-03-06T18:33:56.000Z,3.04
2023-03-06T18:38:51.000Z,2.99
2023-03-06T18:43:45.000Z,2.97
2023-03-06T18:48:38.000Z,2.96
2023-03-06T18:53:32.000Z,2.82
2023-03-06T18:58:26.000Z,2.75
2023-03-06T19:03:19.000Z,2.64
2023-03-06T19:08:11.000Z,2.53
2023-03-06T19:13:03.000Z,2.36
2023-03-06T19:17:58.000Z,2.25
2023-03-06T19:22:51.000Z,2.16
2023-03-06T19:27:45.000Z,2.08
2023-03-06T19:32:39.000Z,2
2023-03-06T19:37:33.000Z,1.92
2023-03-06T19:42:30.000Z,1.88
2023-03-06T19:47:18.000Z,1.88
2023-03-06T19:52:11.000Z,1.68
2023-03-06T19:57:05.000Z,1.75
2023-03-06T20:01:59.000Z,1.73
2023-03-06T20:06:53.000Z,1.77
2023-03-06T20:11:47.000Z,1.75
2023-03-06T20:16:41.000Z,1.64
2023-03-06T20:21:35.000Z,1.6
2023-03-06T20:26:28.000Z,1.53
2023-03-06T20:31:22.000Z,1.54
2023-03-06T20:36:13.000Z,1.4
2023-03-06T20:41:10.000Z,1.39
2023-03-06T20:45:59.000Z,1.32
2023-03-06T20:50:52.000Z,1.33
2023-03-06T20:55:46.000Z,1.34
2023-03-06T21:00:40.000Z,1.37
2023-03-06T21:05:31.000Z,1.67
2023-03-06T21:10:25.000Z,1.56
2023-03-06T21:15:19.000Z,1.53
2023-03-06T21:20:12.000Z,1.6
2023-03-06T21:25:06.000Z,1.6
2023-03-06T21:30:00.000Z,1.61
2023-03-06T21:34:54.000Z,1.65
2023-03-06T21:39:48.000Z,1.66
2023-03-06T21:44:40.000Z,1.69
2023-03-06T21:49:33.000Z,1.71
2023-03-06T21:54:27.000Z,1.73
2023-03-06T21:59:21.000Z,1.7
2023-03-06T22:04:15.000Z,1.68
2023-03-06T22:09:09.000Z,1.64
2023-03-06T22:14:03.000Z,1.69
2023-03-06T22:18:57.000Z,1.71
2023-03-06T22:23:51.000Z,1.74
2023-03-06T22:28:44.000Z,1.77
2023-03-06T22:33:38.000Z,1.74
2023-03-06T22:38:32.000Z,1.77
2023-03-06T22:43:25.000Z,1.82
2023-03-06T22:48:18.000Z,1.84
2023-03-06T22:53:11.000Z,1.79
2023-03-06T22:58:04.000Z,1.82
2023-03-06T23:02:58.000Z,1.86
2023-03-06T23:07:52.000Z,1.9
2023-03-06T23:12:45.000Z,1.87
2023-03-06T23:17:39.000Z,1.91
2023-03-06T23:22:32.000Z,1.94
2023-03-06T23:27:26.000Z,1.93
2023-03-06T23:32:20.000Z,1.96
2023-03-06T23:37:12.000Z,1.94
2023-03-06T23:42:06.000Z,1.95
2023-03-06T23:47:00.000Z,1.94
2023-03-06T23:51:54.000Z,1.94
2023-03-06T23:56:47.000Z,1.92
